Time;durP1;ratioP1;P1;durP2;ratioP2;P2;SDS_P1;SDS_P2;PMS_P1;PMS_P2;Temp;Humidity;BMP_temperature;BMP_pressure;BME280_temperature;BME280_humidity;BME280_pressure;Samples;Min_cycle;Max_cycle;Signal;HPM_P1;HPM_P2
2021/09/15 00:01:31;;;;;;;14.60;10.93;;;;;;;19.99;54.28;92832.53;2058145;69;20142;-77
2021/09/15 00:03:57;;;;;;;15.27;11.63;;;;;;;19.45;55.91;92826.66;2058440;69;20166;-77
2021/09/15 00:06:23;;;;;;;15.23;12.20;;;;;;;19.45;56.07;92827.38;2056364;69;20169;-79
2021/09/15 00:08:48;;;;;;;14.98;11.20;;;;;;;19.66;55.13;92823.03;2057194;69;20211;-79
2021/09/15 00:11:17;;;;;;;15.90;11.48;;;;;;;19.68;55.81;92825.22;2058009;69;20157;-78
2021/09/15 00:13:43;;;;;;;13.02;10.43;;;;;;;19.68;55.22;92820.22;2057896;69;20525;-79
2021/09/15 00:16:09;;;;;;;14.70;11.30;;;;;;;19.59;56.64;92826.34;2058308;69;20593;-77
2021/09/15 00:18:35;;;;;;;15.85;10.98;;;;;;;19.62;55.25;92830.75;2057196;69;20691;-77
2021/09/15 00:21:01;;;;;;;13.15;11.27;;;;;;;19.50;56.29;92831.09;2058511;69;20249;-77
2021/09/15 00:23:27;;;;;;;12.52;11.07;;;;;;;19.54;56.69;92831.22;2058000;69;20626;-77
2021/09/15 00:25:53;;;;;;;12.23;10.88;;;;;;;19.54;55.55;92828.34;2058018;69;20169;-77
2021/09/15 00:28:18;;;;;;;14.13;11.43;;;;;;;19.62;56.19;92834.34;2057339;69;20259;-77
2021/09/15 00:30:44;;;;;;;13.90;11.35;;;;;;;19.36;57.86;92831.38;2057191;69;20154;-77
2021/09/15 00:33:10;;;;;;;14.82;11.30;;;;;;;19.45;57.46;92823.81;2057828;69;20154;-78
2021/09/15 00:35:35;;;;;;;14.75;11.70;;;;;;;19.41;57.13;92830.13;2058077;69;20210;-77
2021/09/15 00:38:01;;;;;;;12.25;10.32;;;;;;;19.37;56.83;92830.00;2056459;69;20204;-78
2021/09/15 00:40:26;;;;;;;15.05;11.07;;;;;;;19.65;55.74;92832.97;2056699;69;20149;-78
2021/09/15 00:42:52;;;;;;;12.73;11.05;;;;;;;19.45;54.94;92832.38;2056947;69;20184;-78
2021/09/15 00:45:19;;;;;;;13.50;11.32;;;;;;;19.40;57.24;92827.94;2057729;69;20146;-79
2021/09/15 00:47:45;;;;;;;14.75;12.02;;;;;;;19.30;58.09;92834.78;2056661;69;20236;-77
2021/09/15 00:50:12;;;;;;;14.88;12.23;;;;;;;19.21;58.37;92832.38;2057242;69;20152;-77
2021/09/15 00:52:38;;;;;;;13.77;11.98;;;;;;;19.14;58.05;92825.00;2055912;69;20197;-78
2021/09/15 00:55:06;;;;;;;12.73;11.43;;;;;;;19.17;58.37;92818.69;2057142;69;20705;-78
2021/09/15 00:57:32;;;;;;;15.35;11.73;;;;;;;19.20;57.75;92813.78;2057823;69;20219;-78
2021/09/15 00:59:59;;;;;;;13.82;11.75;;;;;;;19.16;58.01;92807.94;2057821;69;20536;-76
2021/09/15 01:02:27;;;;;;;15.10;11.10;;;;;;;19.00;57.86;92806.03;2057188;69;20161;-77
2021/09/15 01:04:54;;;;;;;16.17;11.95;;;;;;;18.70;59.82;92799.38;2058451;69;20157;-77
2021/09/15 01:07:21;;;;;;;14.75;11.98;;;;;;;19.05;57.29;92801.91;2057848;69;20593;-78
2021/09/15 01:09:48;;;;;;;16.35;11.93;;;;;;;19.00;58.70;92806.03;2057421;69;20721;-77
2021/09/15 01:12:19;;;;;;;15.50;12.35;;;;;;;18.93;58.25;92803.69;2056563;69;20240;-78
2021/09/15 01:15:04;;;;;;;17.90;11.80;;;;;;;19.01;57.55;92804.66;2057948;69;20149;-77
2021/09/15 01:18:18;;;;;;;17.17;11.77;;;;;;;19.01;58.07;92793.25;2047671;70;20165;-78
2021/09/15 01:21:23;;;;;;;16.73;12.52;;;;;;;18.54;60.12;92805.25;2042712;70;20229;-79
2021/09/15 01:24:07;;;;;;;14.70;12.90;;;;;;;18.70;59.96;92805.09;2049050;70;20699;-79
2021/09/15 01:26:52;;;;;;;15.82;12.63;;;;;;;18.74;59.75;92808.81;2054437;69;20160;-77
2021/09/15 01:29:41;;;;;;;19.00;12.73;;;;;;;18.65;59.12;92803.47;2057125;69;20157;-80
2021/09/15 01:32:15;;;;;;;15.43;12.38;;;;;;;18.54;59.66;92773.88;2057324;69;20160;-79
2021/09/15 01:34:45;;;;;;;15.98;12.35;;;;;;;18.66;59.07;92802.06;2056290;69;20255;-76
2021/09/15 01:37:16;;;;;;;17.25;13.18;;;;;;;18.59;58.93;92792.59;2056548;69;20142;-78
2021/09/15 01:39:53;;;;;;;18.65;13.07;;;;;;;18.65;58.06;92794.91;2055268;69;20149;-78
2021/09/15 01:42:20;;;;;;;16.75;12.38;;;;;;;18.72;59.19;92793.72;2057163;69;20228;-79
2021/09/15 01:44:47;;;;;;;15.68;12.20;;;;;;;18.75;58.77;92790.28;2057693;69;20234;-78
2021/09/15 01:47:17;;;;;;;18.60;13.85;;;;;;;18.23;61.77;92789.25;2055947;69;20777;-78
2021/09/15 01:49:44;;;;;;;20.55;13.93;;;;;;;18.34;60.23;92791.06;2056981;69;20153;-79
2021/09/15 01:52:14;;;;;;;19.45;13.05;;;;;;;18.49;60.28;92789.41;2057240;69;20587;-77
2021/09/15 01:54:40;;;;;;;16.98;13.82;;;;;;;18.39;61.29;92789.81;2053619;69;20622;-79
2021/09/15 01:57:07;;;;;;;18.92;13.55;;;;;;;18.20;61.20;92790.59;2056264;69;20224;-78
2021/09/15 02:00:12;;;;;;;14.77;12.68;;;;;;;18.41;59.82;92789.84;2049890;70;20165;-79
2021/09/15 02:02:41;;;;;;;21.98;13.05;;;;;;;18.27;61.49;92784.41;2045763;70;20162;-79
2021/09/15 02:05:19;;;;;;;14.90;12.68;;;;;;;18.42;59.76;92790.59;2051681;69;20576;-78
2021/09/15 02:08:13;;;;;;;15.95;12.98;;;;;;;18.49;57.26;92792.25;2057506;69;20165;-78
2021/09/15 02:10:48;;;;;;;14.35;12.52;;;;;;;18.62;57.57;92787.69;2056878;69;20181;-78
2021/09/15 02:13:13;;;;;;;15.07;12.85;;;;;;;18.41;60.34;92792.72;2057658;69;20496;-78
2021/09/15 02:15:39;;;;;;;15.55;12.82;;;;;;;18.39;59.95;92792.66;2055477;69;20165;-77
2021/09/15 02:18:05;;;;;;;14.98;13.32;;;;;;;18.27;60.93;92792.22;2056675;69;20150;-78
2021/09/15 02:20:59;;;;;;;14.70;12.43;;;;;;;18.09;61.32;92791.63;2057848;69;20228;-78
2021/09/15 02:23:41;;;;;;;15.38;12.02;;;;;;;18.46;57.67;92788.63;2056688;69;20169;-77
2021/09/15 02:26:24;;;;;;;16.98;13.73;;;;;;;18.33;60.11;92780.34;2057245;69;20283;-77
2021/09/15 02:28:54;;;;;;;16.35;13.60;;;;;;;18.17;59.89;92778.38;2059079;69;20214;-77
2021/09/15 02:31:34;;;;;;;14.00;12.38;;;;;;;18.43;58.49;92769.25;2055760;69;20149;-78
2021/09/15 02:34:25;;;;;;;15.60;13.38;;;;;;;18.27;59.55;92773.00;2051925;69;20160;-78
2021/09/15 02:37:08;;;;;;;15.95;12.95;;;;;;;18.34;59.71;92771.13;2056246;69;20593;-75
2021/09/15 02:39:48;;;;;;;17.58;12.93;;;;;;;18.21;59.91;92784.22;2057540;69;20174;-75
2021/09/15 02:42:20;;;;;;;16.42;13.85;;;;;;;18.06;60.42;92779.44;2056932;69;20265;-75
2021/09/15 02:45:01;;;;;;;14.25;11.55;;;;;;;18.34;59.08;92773.22;2056416;69;20245;-76
2021/09/15 02:47:48;;;;;;;16.67;12.93;;;;;;;17.93;60.96;92777.56;2055705;69;20173;-76
2021/09/15 02:50:35;;;;;;;19.10;13.88;;;;;;;17.93;60.50;92778.28;2057339;69;20141;-78
2021/09/15 02:53:17;;;;;;;18.05;12.82;;;;;;;18.06;60.85;92782.28;2056632;69;20137;-78
2021/09/15 02:55:51;;;;;;;17.85;14.02;;;;;;;18.08;60.52;92781.63;2055599;69;20240;-76
2021/09/15 02:58:35;;;;;;;18.55;14.75;;;;;;;17.86;61.54;92787.97;2058018;69;20140;-75
2021/09/15 03:01:12;;;;;;;17.52;13.35;;;;;;;18.05;60.93;92789.34;2056745;69;20161;-77
2021/09/15 03:04:01;;;;;;;18.60;13.65;;;;;;;18.19;59.91;92769.16;2055613;69;20150;-75
2021/09/15 03:06:38;;;;;;;19.63;13.60;;;;;;;18.13;60.72;92780.34;2057281;69;20179;-77
2021/09/15 03:09:06;;;;;;;18.08;14.10;;;;;;;18.07;60.55;92778.03;2057719;69;20134;-80
2021/09/15 03:11:33;;;;;;;18.23;14.30;;;;;;;18.15;60.63;92780.44;2056760;69;20141;-79
2021/09/15 03:13:59;;;;;;;17.90;14.32;;;;;;;18.20;59.97;92767.78;2056955;69;20208;-78
2021/09/15 03:16:26;;;;;;;15.40;13.23;;;;;;;18.22;59.37;92760.03;2057227;69;20138;-79
2021/09/15 03:18:55;;;;;;;18.35;13.15;;;;;;;18.28;58.64;92754.53;2056646;69;20140;-80
2021/09/15 03:21:20;;;;;;;15.25;13.02;;;;;;;18.56;57.49;92748.31;2056794;69;20177;-77
2021/09/15 03:23:46;;;;;;;14.57;12.85;;;;;;;18.60;56.86;92745.59;2057365;69;20612;-79
2021/09/15 03:26:12;;;;;;;16.58;13.45;;;;;;;18.49;58.38;92744.53;2056821;69;20149;-79
2021/09/15 03:28:37;;;;;;;14.02;12.52;;;;;;;18.63;58.30;92752.81;2057169;69;20173;-77
2021/09/15 03:31:03;;;;;;;16.40;13.00;;;;;;;18.67;57.65;92761.47;2056729;69;20154;-79
2021/09/15 03:33:30;;;;;;;15.35;12.95;;;;;;;18.15;60.49;92764.06;2056443;69;20141;-76
2021/09/15 03:35:56;;;;;;;17.75;13.77;;;;;;;17.99;60.88;92769.22;2056823;69;20153;-75
2021/09/15 03:38:22;;;;;;;16.85;13.23;;;;;;;17.92;61.47;92764.72;2056699;69;20150;-74
2021/09/15 03:40:48;;;;;;;16.35;13.75;;;;;;;17.94;61.69;92761.91;2057946;69;20177;-77
2021/09/15 03:43:13;;;;;;;17.10;13.50;;;;;;;18.04;59.27;92759.41;2056531;69;20562;-77
2021/09/15 03:45:39;;;;;;;16.42;12.85;;;;;;;18.16;59.13;92761.94;2057005;69;20196;-78
2021/09/15 03:48:04;;;;;;;18.10;13.90;;;;;;;18.05;60.88;92758.00;2057320;69;20623;-78
2021/09/15 03:50:31;;;;;;;17.40;13.02;;;;;;;18.12;60.36;92751.16;2057490;69;20145;-76
2021/09/15 03:52:57;;;;;;;15.85;13.32;;;;;;;18.18;59.30;92744.91;2057731;69;20164;-78
2021/09/15 03:55:22;;;;;;;14.40;12.60;;;;;;;18.15;58.92;92746.25;2058246;69;20154;-79
2021/09/15 03:57:48;;;;;;;16.17;13.23;;;;;;;18.24;57.49;92748.00;2057627;69;20181;-77
2021/09/15 04:00:15;;;;;;;16.25;14.27;;;;;;;17.68;61.85;92744.59;2055362;69;20236;-77
2021/09/15 04:02:45;;;;;;;18.75;13.32;;;;;;;18.03;58.23;92733.06;2057456;69;20191;-77
2021/09/15 04:05:17;;;;;;;16.20;13.90;;;;;;;17.86;61.44;92736.00;2057863;69;20403;-79
2021/09/15 04:07:43;;;;;;;15.68;12.95;;;;;;;18.10;59.09;92731.16;2057400;69;20608;-78
2021/09/15 04:10:09;;;;;;;16.08;13.60;;;;;;;18.11;59.58;92723.31;2057941;69;20176;-76
2021/09/15 04:12:35;;;;;;;16.70;12.88;;;;;;;18.36;58.40;92722.72;2057792;69;20696;-77
2021/09/15 04:15:01;;;;;;;15.85;12.48;;;;;;;18.56;57.72;92719.06;2057559;69;20145;-76
2021/09/15 04:17:27;;;;;;;13.20;11.68;;;;;;;18.49;56.71;92713.16;2056508;69;20186;-78
2021/09/15 04:19:54;;;;;;;18.98;12.68;;;;;;;18.49;59.56;92713.16;2057537;69;20149;-79
2021/09/15 04:22:20;;;;;;;16.40;12.15;;;;;;;18.24;58.79;92713.78;2057400;69;20146;-78
2021/09/15 04:33:02;;;;;;;17.73;13.52;;;;;;;18.17;59.88;92740.63;2057765;69;20193;-78
2021/09/15 04:35:28;;;;;;;30.95;22.17;;;;;;;17.86;60.30;92741.69;2057768;69;20165;-79
2021/09/15 04:37:54;;;;;;;27.00;21.02;;;;;;;18.07;58.86;92737.44;2056975;69;20185;-76
2021/09/15 04:40:22;;;;;;;28.67;22.42;;;;;;;17.95;60.53;92729.91;2057952;69;20208;-78
2021/09/15 04:42:47;;;;;;;20.40;17.40;;;;;;;17.83;61.09;92732.38;2055599;69;20764;-78
2021/09/15 04:45:14;;;;;;;21.65;15.38;;;;;;;17.88;60.67;92728.28;2057632;69;20638;-76
2021/09/15 04:47:41;;;;;;;21.35;15.80;;;;;;;17.89;61.48;92734.69;2057327;69;20626;-78
2021/09/15 04:50:07;;;;;;;21.75;17.05;;;;;;;17.76;62.08;92744.94;2057209;69;20149;-78
2021/09/15 04:52:33;;;;;;;23.33;17.30;;;;;;;17.77;61.86;92741.41;2056524;69;20161;-79
2021/09/15 04:54:59;;;;;;;19.90;16.65;;;;;;;17.70;62.21;92750.38;2058027;69;20161;-76
2021/09/15 04:57:24;;;;;;;22.10;16.63;;;;;;;17.78;61.79;92754.28;2054161;69;20154;-76
2021/09/15 04:59:52;;;;;;;18.42;15.90;;;;;;;17.80;62.40;92761.44;2057434;69;20145;-76
2021/09/15 05:02:17;;;;;;;18.65;16.02;;;;;;;17.84;61.12;92758.72;2057548;69;20169;-79
2021/09/15 05:04:46;;;;;;;20.85;16.02;;;;;;;17.82;62.21;92747.97;2057880;69;20631;-78
2021/09/15 05:07:22;;;;;;;19.08;15.18;;;;;;;17.87;61.62;92749.59;2057288;69;20249;-78
2021/09/15 05:09:48;;;;;;;19.10;15.75;;;;;;;17.78;62.40;92754.28;2057201;69;20516;-78
2021/09/15 05:12:13;;;;;;;17.38;15.00;;;;;;;17.88;61.33;92753.16;2058421;69;20150;-80
2021/09/15 05:14:39;;;;;;;21.42;17.55;;;;;;;17.46;64.07;92756.69;2057584;69;20188;-77
2021/09/15 05:17:05;;;;;;;21.98;16.00;;;;;;;17.78;62.23;92757.13;2053995;69;20153;-77
2021/09/15 05:19:33;;;;;;;17.35;14.68;;;;;;;17.94;61.47;92764.75;2057034;69;20248;-79
2021/09/15 05:21:58;;;;;;;19.23;15.73;;;;;;;17.90;61.45;92765.34;2057401;69;20152;-78
2021/09/15 05:24:24;;;;;;;20.88;15.20;;;;;;;17.92;62.53;92771.13;2056472;69;20153;-77
2021/09/15 05:26:50;;;;;;;21.65;15.48;;;;;;;17.98;61.68;92759.94;2057744;69;20197;-79
2021/09/15 05:29:16;;;;;;;19.65;15.90;;;;;;;17.96;62.39;92759.13;2059077;69;20173;-79
2021/09/15 05:31:42;;;;;;;20.90;15.00;;;;;;;18.13;61.80;92766.84;2053452;69;20138;-79
2021/09/15 05:34:07;;;;;;;20.35;15.57;;;;;;;18.09;62.51;92771.66;2057167;69;20154;-79
2021/09/15 05:36:33;;;;;;;18.25;15.52;;;;;;;18.20;61.73;92762.09;2058076;69;20248;-77
2021/09/15 05:39:04;;;;;;;19.42;15.10;;;;;;;18.27;60.65;92766.59;2057819;69;20241;-78
2021/09/15 05:41:31;;;;;;;22.70;15.95;;;;;;;18.37;60.34;92760.50;2055396;69;20232;-79
2021/09/15 05:43:57;;;;;;;19.42;14.23;;;;;;;18.39;59.93;92757.72;2057732;69;20593;-79
2021/09/15 05:46:24;;;;;;;18.30;14.90;;;;;;;18.28;61.15;92759.53;2056480;69;20184;-80
2021/09/15 05:48:50;;;;;;;21.40;15.02;;;;;;;18.41;60.87;92760.63;2056894;69;20244;-78
2021/09/15 05:51:17;;;;;;;19.92;14.90;;;;;;;18.69;60.04;92758.00;2057963;69;20138;-77
2021/09/15 05:53:47;;;;;;;19.52;14.73;;;;;;;18.44;58.55;92762.16;2056253;69;20144;-78
2021/09/15 05:56:12;;;;;;;18.60;14.63;;;;;;;18.59;59.63;92761.22;2057850;69;20592;-77
2021/09/15 05:58:38;;;;;;;19.60;14.45;;;;;;;18.75;59.06;92764.63;2057013;69;20162;-77
2021/09/15 06:01:07;;;;;;;21.50;15.70;;;;;;;18.01;64.15;92763.59;2057054;69;20233;-77
2021/09/15 06:03:34;;;;;;;18.02;14.48;;;;;;;18.52;61.86;92763.16;2057138;69;20608;-76
2021/09/15 06:06:14;;;;;;;18.85;15.45;;;;;;;18.68;61.92;92762.94;2057921;69;20245;-76
2021/09/15 06:08:40;;;;;;;19.33;14.05;;;;;;;18.76;61.46;92765.34;2057293;69;20160;-77
2021/09/15 06:11:06;;;;;;;20.00;15.23;;;;;;;18.62;61.79;92767.72;2057555;69;20242;-78
2021/09/15 06:13:33;;;;;;;19.75;15.55;;;;;;;18.59;62.78;92777.59;2057208;69;20219;-79
2021/09/15 06:15:59;;;;;;;20.13;16.15;;;;;;;18.70;62.40;92777.31;2057806;69;20193;-77
2021/09/15 06:18:26;;;;;;;24.27;17.15;;;;;;;18.85;58.87;92787.03;2056786;69;20133;-78
2021/09/15 06:21:08;;;;;;;20.87;17.03;;;;;;;19.03;56.81;92790.44;2056760;69;20168;-77
2021/09/15 06:24:14;;;;;;;22.55;16.42;;;;;;;19.11;57.87;92783.53;2049242;70;20157;-78
2021/09/15 06:26:39;;;;;;;21.55;15.80;;;;;;;19.18;58.50;92785.19;2047302;70;20149;-77
2021/09/15 06:29:05;;;;;;;18.88;15.77;;;;;;;19.08;60.36;92791.31;2052247;69;20145;-77
2021/09/15 06:31:30;;;;;;;20.00;16.65;;;;;;;19.05;59.95;92787.66;2056094;69;20601;-76
2021/09/15 06:33:56;;;;;;;19.45;16.23;;;;;;;19.06;60.30;92788.41;2056790;69;20670;-76
2021/09/15 06:36:22;;;;;;;20.65;16.23;;;;;;;19.17;59.86;92787.31;2057456;69;20145;-78
2021/09/15 06:38:49;;;;;;;18.67;15.25;;;;;;;19.24;58.78;92786.09;2058197;69;20196;-77
2021/09/15 06:41:15;;;;;;;23.92;15.10;;;;;;;19.45;58.16;92784.56;2056959;69;20158;-77
2021/09/15 06:43:41;;;;;;;17.90;15.77;;;;;;;19.36;59.43;92782.88;2057937;69;20134;-77
2021/09/15 06:46:07;;;;;;;17.92;15.32;;;;;;;19.50;58.97;92776.84;2058337;69;20540;-79
2021/09/15 06:48:33;;;;;;;17.45;15.32;;;;;;;19.55;58.27;92770.56;2057766;69;20728;-77
2021/09/15 06:50:58;;;;;;;17.67;14.07;;;;;;;19.54;57.88;92763.41;2057616;69;20188;-79
2021/09/15 06:53:26;;;;;;;16.88;14.98;;;;;;;19.52;61.60;92765.50;2057931;69;20624;-77
2021/09/15 06:55:52;;;;;;;17.35;14.40;;;;;;;19.50;62.26;92763.28;2057713;69;20149;-76
2021/09/15 06:58:18;;;;;;;16.42;14.40;;;;;;;19.72;57.29;92760.38;2058039;69;20161;-78
2021/09/15 07:00:44;;;;;;;17.30;15.13;;;;;;;19.74;57.75;92768.25;2057063;69;20145;-79
2021/09/15 07:03:09;;;;;;;19.30;14.32;;;;;;;19.75;56.33;92769.75;2056635;69;20600;-79
2021/09/15 07:05:37;;;;;;;20.35;15.15;;;;;;;19.91;57.96;92775.16;2056759;69;20624;-79
2021/09/15 07:08:04;;;;;;;18.20;14.35;;;;;;;19.92;55.99;92777.34;2057530;69;20149;-76
2021/09/15 07:10:31;;;;;;;17.50;14.77;;;;;;;19.98;58.23;92786.09;2057862;69;20150;-78
2021/09/15 07:12:57;;;;;;;20.90;14.02;;;;;;;20.02;57.92;92782.59;2057604;69;20181;-78
2021/09/15 07:15:23;;;;;;;17.48;14.18;;;;;;;20.11;54.85;92778.56;2057942;69;20494;-78
2021/09/15 07:17:50;;;;;;;20.50;14.43;;;;;;;19.97;57.19;92775.31;2057421;69;20150;-80
2021/09/15 07:20:16;;;;;;;15.13;13.18;;;;;;;20.13;55.64;92767.19;2058025;69;20144;-81
2021/09/15 07:22:42;;;;;;;15.85;13.88;;;;;;;20.11;56.73;92780.69;2057671;69;20137;-78
2021/09/15 07:25:08;;;;;;;17.77;14.48;;;;;;;19.86;57.81;92780.03;2058583;69;20222;-76
2021/09/15 07:27:34;;;;;;;17.92;13.10;;;;;;;20.21;56.15;92780.97;2058787;69;20237;-77
2021/09/15 07:29:59;;;;;;;15.70;14.00;;;;;;;20.09;56.53;92784.22;2058709;69;20236;-80
2021/09/15 07:32:26;;;;;;;16.38;13.35;;;;;;;20.31;54.28;92778.38;2058622;69;20237;-80
2021/09/15 07:34:51;;;;;;;16.60;13.75;;;;;;;20.41;54.78;92777.91;2058020;69;20158;-80
2021/09/15 07:37:17;;;;;;;18.45;13.68;;;;;;;20.52;56.49;92779.63;2058714;69;20138;-78
2021/09/15 07:39:43;;;;;;;15.30;12.82;;;;;;;20.54;57.68;92779.69;2058296;69;20688;-75
2021/09/15 07:42:09;;;;;;;19.88;16.08;;;;;;;20.41;57.43;92784.34;2058426;69;20157;-79
2021/09/15 07:44:37;;;;;;;20.48;14.35;;;;;;;20.48;54.78;92780.28;2058525;69;20264;-77
2021/09/15 07:47:03;;;;;;;18.65;13.77;;;;;;;20.75;54.73;92770.19;2058259;69;20625;-76
2021/09/15 07:49:29;;;;;;;20.98;14.05;;;;;;;20.86;53.73;92773.31;2058512;69;20153;-77
2021/09/15 07:51:55;;;;;;;18.70;14.85;;;;;;;20.77;54.85;92780.97;2055317;69;20529;-81
2021/09/15 07:54:20;;;;;;;20.90;15.13;;;;;;;20.67;57.62;92778.59;2058640;69;20150;-76
2021/09/15 07:56:47;;;;;;;16.42;14.68;;;;;;;20.54;57.78;92780.41;2058605;69;20176;-75
2021/09/15 07:59:12;;;;;;;20.13;14.68;;;;;;;20.49;58.99;92778.88;2058632;69;20510;-75
2021/09/15 08:01:38;;;;;;;17.48;14.32;;;;;;;20.74;57.24;92780.19;2058460;69;20527;-76
2021/09/15 08:04:06;;;;;;;20.40;14.15;;;;;;;20.95;54.42;92780.69;2058453;69;20603;-76
2021/09/15 08:06:33;;;;;;;18.65;14.77;;;;;;;21.17;54.99;92783.34;2058140;69;20289;-77
2021/09/15 08:08:59;;;;;;;16.42;13.68;;;;;;;21.29;53.86;92780.72;2058346;69;20172;-76
2021/09/15 08:11:24;;;;;;;19.48;14.30;;;;;;;21.46;55.40;92770.41;2058397;69;20153;-77
2021/09/15 08:13:52;;;;;;;22.67;15.25;;;;;;;21.60;54.61;92779.28;2058602;69;20517;-76
2021/09/15 08:16:18;;;;;;;18.55;13.75;;;;;;;21.89;53.09;92765.53;2057926;69;20593;-76
2021/09/15 08:18:43;;;;;;;19.45;13.70;;;;;;;22.12;53.19;92763.84;2058507;69;20149;-77
2021/09/15 08:21:09;;;;;;;18.27;14.38;;;;;;;22.33;54.46;92769.28;2058257;69;20596;-77
2021/09/15 08:23:34;;;;;;;17.02;14.35;;;;;;;22.20;53.35;92761.16;2058453;69;20212;-77
2021/09/15 08:26:00;;;;;;;14.55;12.75;;;;;;;22.20;51.40;92756.13;2058165;69;20185;-78
2021/09/15 08:28:26;;;;;;;16.00;12.35;;;;;;;22.44;50.35;92761.56;2055251;69;20521;-77
2021/09/15 08:30:51;;;;;;;16.33;12.70;;;;;;;22.37;50.70;92765.78;2058596;69;20173;-76
2021/09/15 08:33:17;;;;;;;14.23;12.20;;;;;;;22.55;50.73;92768.97;2058123;69;20696;-75
2021/09/15 08:35:44;;;;;;;15.75;13.57;;;;;;;22.40;52.16;92775.84;2058451;69;20149;-76
2021/09/15 08:38:13;;;;;;;17.13;14.02;;;;;;;21.95;53.65;92774.28;2058270;69;20145;-78
2021/09/15 08:40:39;;;;;;;19.52;14.98;;;;;;;22.08;53.60;92779.56;2058210;69;20268;-75
2021/09/15 08:43:05;;;;;;;14.65;12.23;;;;;;;22.41;51.41;92774.44;2058298;69;20588;-77
2021/09/15 08:45:31;;;;;;;15.60;13.05;;;;;;;22.60;52.20;92778.38;2058528;69;20674;-76
2021/09/15 08:48:00;;;;;;;20.17;14.60;;;;;;;22.68;51.28;92767.03;2058393;69;20535;-80
2021/09/15 08:50:25;;;;;;;15.75;13.77;;;;;;;22.71;50.70;92777.09;2058359;69;20145;-76
2021/09/15 08:52:51;;;;;;;17.42;13.00;;;;;;;22.81;52.41;92783.00;2058412;69;20153;-80
2021/09/15 08:55:16;;;;;;;17.13;13.20;;;;;;;22.98;52.70;92772.56;2058412;69;20183;-78
2021/09/15 08:57:42;;;;;;;14.23;12.55;;;;;;;23.08;52.62;92772.69;2060215;69;20594;-78
2021/09/15 09:00:09;;;;;;;17.02;13.05;;;;;;;23.07;54.63;92768.38;2056928;69;20434;-76
2021/09/15 09:02:43;;;;;;;15.85;12.75;;;;;;;22.98;52.86;92772.56;2056161;69;20161;-77
2021/09/15 09:05:09;;;;;;;14.73;13.13;;;;;;;22.91;53.83;92770.28;2057251;69;20180;-77
2021/09/15 09:07:35;;;;;;;14.80;13.20;;;;;;;22.53;53.13;92765.31;2057227;69;20145;-77
2021/09/15 09:10:07;;;;;;;18.17;12.77;;;;;;;22.66;53.56;92772.72;2058562;69;20584;-81
2021/09/15 09:12:33;;;;;;;15.90;13.05;;;;;;;22.58;52.78;92775.44;2060691;69;20173;-80
2021/09/15 09:15:14;;;;;;;17.05;13.63;;;;;;;22.64;52.12;92769.09;2056816;69;20149;-77
2021/09/15 09:17:40;;;;;;;18.08;13.95;;;;;;;22.58;55.42;92773.28;2061122;69;20166;-79
2021/09/15 09:20:15;;;;;;;16.05;14.20;;;;;;;22.66;56.27;92772.00;2058749;69;20153;-78
2021/09/15 09:23:01;;;;;;;14.85;12.85;;;;;;;22.66;53.20;92764.13;2059121;69;20161;-79
2021/09/15 09:25:38;;;;;;;15.32;12.13;;;;;;;22.69;53.45;92757.00;2061689;69;20279;-79
2021/09/15 09:28:23;;;;;;;17.77;14.57;;;;;;;22.56;55.16;92761.81;2060997;69;20156;-77
2021/09/15 09:30:53;;;;;;;17.77;14.90;;;;;;;22.28;55.89;92762.03;2058247;69;20176;-79
2021/09/15 09:33:20;;;;;;;18.05;13.50;;;;;;;22.65;53.41;92756.22;2058663;69;20174;-80
2021/09/15 09:35:50;;;;;;;17.73;14.10;;;;;;;22.76;57.91;92761.41;2058910;69;20141;-79
2021/09/15 09:38:17;;;;;;;17.75;13.35;;;;;;;22.81;54.67;92760.06;2058334;69;20237;-77
2021/09/15 09:41:16;;;;;;;16.92;14.55;;;;;;;22.87;53.95;92758.72;2058231;69;20130;-76
2021/09/15 09:43:49;;;;;;;16.58;13.65;;;;;;;22.83;53.46;92765.84;2050647;70;20143;-78
2021/09/15 09:46:21;;;;;;;16.70;12.88;;;;;;;22.80;52.68;92770.09;2048260;70;20150;-79
2021/09/15 09:48:54;;;;;;;16.02;13.23;;;;;;;22.81;52.69;92762.91;2050334;70;20159;-77
2021/09/15 09:51:29;;;;;;;;;;;;;;;22.60;55.73;92769.03;2052079;70;20197;-78
2021/09/15 09:54:27;;;;;;;20.27;14.52;;;;;;;22.65;53.63;92765.53;2050364;70;20050;-76
2021/09/15 09:56:58;;;;;;;16.65;14.18;;;;;;;22.43;55.95;92768.00;2048427;70;20311;-77
2021/09/15 09:59:26;;;;;;;18.75;14.68;;;;;;;22.18;54.81;92761.84;2050006;70;20195;-76
2021/09/15 10:01:56;;;;;;;20.80;15.48;;;;;;;22.14;56.56;92766.78;2050983;70;20174;-76
2021/09/15 10:04:24;;;;;;;19.08;14.95;;;;;;;22.24;55.09;92755.50;2050271;70;20135;-76
2021/09/15 10:06:49;;;;;;;21.42;14.32;;;;;;;22.20;56.91;92758.28;2049509;70;20185;-78
2021/09/15 10:09:15;;;;;;;18.13;14.73;;;;;;;22.23;55.05;92751.19;2050489;70;20185;-79
2021/09/15 10:11:43;;;;;;;16.77;14.20;;;;;;;22.47;52.65;92748.72;2048499;70;20630;-79
2021/09/15 10:14:11;;;;;;;17.90;14.20;;;;;;;22.23;54.17;92751.91;2049883;70;20284;-79
2021/09/15 10:16:52;;;;;;;18.13;13.70;;;;;;;22.62;52.93;92741.09;2050214;70;20154;-77
2021/09/15 10:19:25;;;;;;;18.10;14.15;;;;;;;22.95;51.96;92739.47;2052608;70;20157;-79
2021/09/15 10:21:59;;;;;;;15.38;13.07;;;;;;;23.12;51.68;92726.09;2054919;69;20186;-80
2021/09/15 10:24:47;;;;;;;15.02;13.40;;;;;;;23.12;52.01;92720.38;2054541;70;20550;-77
2021/09/15 10:27:14;;;;;;;17.27;13.32;;;;;;;22.52;52.13;92721.56;2054643;69;20150;-80
2021/09/15 10:29:43;;;;;;;16.27;13.15;;;;;;;22.53;52.08;92716.56;2054509;69;20238;-75
2021/09/15 10:32:09;;;;;;;18.10;13.77;;;;;;;22.31;51.98;92716.91;2057471;69;20272;-77
2021/09/15 10:34:41;;;;;;;16.35;14.35;;;;;;;22.69;51.69;92713.25;2057797;69;20241;-76
2021/09/15 10:37:12;;;;;;;17.80;13.93;;;;;;;22.69;51.94;92710.38;2057944;69;20157;-77
2021/09/15 10:40:09;;;;;;;16.27;13.48;;;;;;;23.37;49.65;92712.81;2056090;69;20159;-78
2021/09/15 10:42:48;;;;;;;17.58;12.55;;;;;;;23.73;50.03;92703.22;2057910;69;20145;-76
2021/09/15 10:45:14;;;;;;;16.38;13.13;;;;;;;23.70;49.62;92710.38;2058332;69;20144;-78
2021/09/15 10:47:47;;;;;;;15.70;13.02;;;;;;;24.04;49.07;92707.88;2057956;69;20241;-78
2021/09/15 10:50:33;;;;;;;16.25;12.50;;;;;;;24.05;48.14;92711.50;2058170;69;20251;-77
2021/09/15 10:53:07;;;;;;;14.02;12.63;;;;;;;24.00;47.38;92710.72;2057522;69;20204;-77
2021/09/15 10:55:55;;;;;;;15.65;12.73;;;;;;;24.37;47.95;92708.25;2058132;69;20597;-76
2021/09/15 10:58:31;;;;;;;13.48;12.10;;;;;;;24.30;47.35;92701.69;2058388;69;20150;-76
2021/09/15 11:00:58;;;;;;;13.93;12.23;;;;;;;24.38;46.69;92697.47;2058133;69;20588;-76
2021/09/15 11:03:53;;;;;;;14.98;12.63;;;;;;;24.08;46.24;92690.69;2058015;69;20237;-77
2021/09/15 11:06:22;;;;;;;16.85;13.23;;;;;;;23.99;47.02;92691.31;2057365;69;20161;-75
2021/09/15 11:08:51;;;;;;;15.88;12.85;;;;;;;24.12;47.59;92681.38;2057979;69;20153;-78
2021/09/15 11:11:20;;;;;;;13.07;11.77;;;;;;;24.28;47.04;92686.56;2057431;69;20608;-77
2021/09/15 11:14:08;;;;;;;16.92;13.35;;;;;;;24.27;48.54;92676.47;2057940;69;20229;-78
2021/09/15 11:16:37;;;;;;;14.85;12.85;;;;;;;24.17;48.86;92668.47;2057969;69;20142;-76
2021/09/15 11:19:09;;;;;;;14.50;12.43;;;;;;;24.53;48.75;92676.75;2057646;69;20585;-79
2021/09/15 11:21:52;;;;;;;14.07;12.57;;;;;;;24.61;47.39;92664.59;2057566;69;20173;-78
2021/09/15 11:24:21;;;;;;;15.07;12.80;;;;;;;24.92;47.11;92670.56;2057791;69;20189;-78
2021/09/15 11:27:07;;;;;;;19.80;15.38;;;;;;;25.21;46.47;92668.63;2057927;69;20141;-77
2021/09/15 11:29:43;;;;;;;26.63;18.45;;;;;;;25.31;46.27;92668.66;2057742;69;20613;-77
2021/09/15 11:32:12;;;;;;;16.60;13.65;;;;;;;25.30;46.46;92673.00;2056383;69;20205;-77
2021/09/15 11:34:41;;;;;;;15.27;13.00;;;;;;;25.19;46.95;92666.44;2056267;69;20157;-76
2021/09/15 11:37:15;;;;;;;20.27;13.43;;;;;;;25.63;45.08;92664.50;2057804;69;20216;-77
2021/09/15 11:39:41;;;;;;;15.50;13.30;;;;;;;25.52;45.25;92657.94;2057157;69;20157;-76